Time;durP1;ratioP1;P1;durP2;ratioP2;P2;SDS_P1;SDS_P2;PMS_P1;PMS_P2;Temp;Humidity;BMP_temperature;BMP_pressure;BME280_temperature;BME280_humidity;BME280_pressure;Samples;Min_cycle;Max_cycle;Signal;HPM_P1;HPM_P2
2022/07/22 00:00:09;;;;;;;6.90;6.30;;;26.40;96.60;;;;;;6166330;28;87270;-65
2022/07/22 00:03:12;;;;;;;7.05;6.40;;;26.30;96.50;;;;;;6166470;28;89174;-65
2022/07/22 00:06:14;;;;;;;6.90;6.30;;;26.40;96.60;;;;;;6173921;28;89024;-65
2022/07/22 00:09:16;;;;;;;6.45;5.85;;;26.30;96.60;;;;;;6172703;28;88882;-65
2022/07/22 00:12:18;;;;;;;6.80;6.20;;;26.40;96.60;;;;;;6163064;28;88896;-65
2022/07/22 00:15:21;;;;;;;6.45;5.93;;;26.40;96.60;;;;;;6168568;28;89179;-65
2022/07/22 00:18:24;;;;;;;6.78;6.18;;;26.30;96.60;;;;;;6180158;28;89140;-64
2022/07/22 00:21:26;;;;;;;6.22;5.72;;;26.40;96.50;;;;;;6168910;28;88004;-65
2022/07/22 00:24:28;;;;;;;6.22;5.72;;;26.40;96.50;;;;;;6175219;28;89060;-64
2022/07/22 00:27:30;;;;;;;6.55;6.05;;;26.40;96.50;;;;;;6182239;28;89427;-65
2022/07/22 00:30:32;;;;;;;6.78;6.22;;;26.40;96.50;;;;;;6182068;28;87230;-64
2022/07/22 00:33:36;;;;;;;6.57;6.07;;;26.30;96.60;;;;;;6183322;28;89084;-65
2022/07/22 00:36:38;;;;;;;6.68;6.18;;;26.30;96.60;;;;;;6169701;28;89026;-65
2022/07/22 00:39:40;;;;;;;6.80;6.20;;;26.40;96.60;;;;;;6176235;28;89020;-65
2022/07/22 00:42:42;;;;;;;6.40;5.90;;;26.40;96.60;;;;;;6166506;28;89464;-65
2022/07/22 00:45:44;;;;;;;6.90;6.30;;;26.40;96.60;;;;;;6170340;28;89014;-65
2022/07/22 00:48:47;;;;;;;6.65;6.15;;;26.40;96.60;;;;;;6170450;28;88979;-64
2022/07/22 00:51:49;;;;;;;6.50;6.00;;;26.40;96.60;;;;;;6158818;28;89043;-64
2022/07/22 00:54:52;;;;;;;6.60;6.03;;;26.30;96.50;;;;;;6173917;28;89161;-65
2022/07/22 00:57:54;;;;;;;6.72;6.18;;;26.40;96.60;;;;;;6171057;28;89057;-65
2022/07/22 01:00:56;;;;;;;6.53;6.03;;;26.30;96.60;;;;;;6163591;28;88281;-64
2022/07/22 01:04:00;;;;;;;6.65;6.05;;;26.30;96.60;;;;;;6166148;28;89037;-64
2022/07/22 01:07:02;;;;;;;6.65;6.05;;;26.40;96.50;;;;;;6172687;28;89450;-65
2022/07/22 01:10:06;;;;;;;6.22;5.72;;;26.40;96.50;;;;;;6172681;28;89985;-64
2022/07/22 01:13:08;;;;;;;6.28;5.78;;;26.30;96.50;;;;;;6163938;28;89416;-65
2022/07/22 01:16:11;;;;;;;6.70;6.07;;;26.30;96.50;;;;;;6173594;28;89083;-64
2022/07/22 01:19:15;;;;;;;6.38;5.88;;;26.30;96.60;;;;;;6160911;28;88994;-65
2022/07/22 01:22:18;;;;;;;6.20;5.70;;;26.40;96.60;;;;;;6181412;28;89304;-65
2022/07/22 01:25:20;;;;;;;6.45;5.95;;;26.30;96.60;;;;;;6174991;28;89259;-65
2022/07/22 01:28:23;;;;;;;6.30;5.75;;;26.30;96.60;;;;;;6178148;28;89546;-64
2022/07/22 01:31:25;;;;;;;6.03;5.53;;;26.40;96.60;;;;;;6178096;28;87188;-65
2022/07/22 01:34:26;;;;;;;5.95;5.45;;;26.40;96.60;;;;;;6172655;28;89418;-65
2022/07/22 01:37:30;;;;;;;6.03;5.53;;;26.30;96.60;;;;;;6171881;28;87856;-64
2022/07/22 01:40:32;;;;;;;6.43;5.93;;;26.30;96.60;;;;;;6173158;28;90064;-64
2022/07/22 01:43:34;;;;;;;6.55;6.05;;;26.40;96.60;;;;;;6162658;28;88777;-64
2022/07/22 01:46:36;;;;;;;7.00;6.40;;;26.30;96.60;;;;;;6163011;28;89531;-64
2022/07/22 01:49:38;;;;;;;6.55;5.95;;;26.30;96.60;;;;;;6156896;28;89058;-64
2022/07/22 01:52:42;;;;;;;6.20;5.68;;;26.30;96.50;;;;;;6156268;28;89006;-64
2022/07/22 01:55:44;;;;;;;6.25;5.75;;;26.30;96.50;;;;;;6168237;28;89088;-64
2022/07/22 01:58:46;;;;;;;6.85;6.20;;;26.30;96.50;;;;;;6163365;28;89003;-64
2022/07/22 02:01:48;;;;;;;6.28;5.78;;;26.30;96.50;;;;;;6174221;28;87261;-64
2022/07/22 02:04:50;;;;;;;6.50;5.97;;;26.30;96.60;;;;;;6168381;28;89274;-64
2022/07/22 02:07:53;;;;;;;6.60;6.05;;;26.30;96.60;;;;;;6162260;28;89538;-64
2022/07/22 02:10:55;;;;;;;6.60;6.00;;;26.30;96.60;;;;;;6159539;28;90027;-64
2022/07/22 02:13:58;;;;;;;6.30;5.80;;;26.30;96.60;;;;;;6170321;28;89067;-64
2022/07/22 02:17:00;;;;;;;6.40;5.90;;;26.30;96.60;;;;;;6168388;28;90409;-65
2022/07/22 02:20:02;;;;;;;5.90;5.43;;;26.30;96.60;;;;;;6181029;28;89474;-65
2022/07/22 02:23:06;;;;;;;6.30;5.80;;;26.40;96.60;;;;;;6169578;28;89118;-64
2022/07/22 02:26:08;;;;;;;6.05;5.55;;;26.30;96.60;;;;;;6162219;28;89197;-65
2022/07/22 02:29:10;;;;;;;6.53;6.03;;;26.30;96.60;;;;;;6177627;28;89052;-64
2022/07/22 02:32:12;;;;;;;6.25;5.75;;;26.30;96.60;;;;;;6172640;28;87415;-65
2022/07/22 02:35:14;;;;;;;6.30;5.80;;;26.30;96.50;;;;;;6158761;28;89181;-65
2022/07/22 02:38:18;;;;;;;6.70;6.10;;;26.30;96.50;;;;;;6178718;28;89420;-64
2022/07/22 02:41:20;;;;;;;6.35;5.75;;;26.30;96.40;;;;;;6168234;28;90004;-65
2022/07/22 02:44:22;;;;;;;5.90;5.50;;;26.30;96.50;;;;;;6176286;28;89098;-65
2022/07/22 02:47:24;;;;;;;6.32;5.72;;;26.30;96.40;;;;;;6170058;28;89095;-65
2022/07/22 02:50:26;;;;;;;5.70;5.30;;;26.30;96.50;;;;;;6173436;28;89557;-65
2022/07/22 02:53:30;;;;;;;5.82;5.32;;;26.30;96.50;;;;;;6181144;28;89150;-65
2022/07/22 02:56:32;;;;;;;5.80;5.40;;;26.40;96.60;;;;;;6184092;28;89011;-65
2022/07/22 02:59:34;;;;;;;6.10;5.60;;;26.30;96.50;;;;;;6177541;28;89029;-64
2022/07/22 03:02:36;;;;;;;6.00;5.50;;;26.30;96.50;;;;;;6182703;28;87425;-64
2022/07/22 03:05:38;;;;;;;6.10;5.60;;;26.30;96.50;;;;;;6176827;28;89043;-65
2022/07/22 03:08:41;;;;;;;5.93;5.53;;;26.30;96.50;;;;;;6181757;28;89470;-65
2022/07/22 03:11:43;;;;;;;6.13;5.63;;;26.30;96.50;;;;;;6183161;28;89018;-65
2022/07/22 03:14:45;;;;;;;5.53;5.13;;;26.30;96.50;;;;;;6176671;28;89354;-65
2022/07/22 03:17:47;;;;;;;5.90;5.50;;;26.30;96.50;;;;;;6179561;28;89110;-64
2022/07/22 03:20:49;;;;;;;6.32;5.82;;;26.30;96.50;;;;;;6181513;28;89141;-65
2022/07/22 03:23:53;;;;;;;6.10;5.63;;;26.30;96.40;;;;;;6179503;28;89022;-64
2022/07/22 03:26:55;;;;;;;5.78;5.28;;;26.30;96.40;;;;;;6171930;28;89127;-64
2022/07/22 03:29:57;;;;;;;6.00;5.50;;;26.30;96.40;;;;;;6180608;28;89141;-64
2022/07/22 03:32:59;;;;;;;6.10;5.60;;;26.30;96.40;;;;;;6176563;28;88220;-65
2022/07/22 03:36:01;;;;;;;6.28;5.78;;;26.30;96.40;;;;;;6179011;28;89004;-65
2022/07/22 03:39:05;;;;;;;5.80;5.40;;;26.30;96.50;;;;;;6171122;28;89042;-64
2022/07/22 03:42:07;;;;;;;5.70;5.30;;;26.30;96.50;;;;;;6182336;28;90045;-65
2022/07/22 03:45:10;;;;;;;6.00;5.50;;;26.30;96.50;;;;;;6171731;28;89175;-64
2022/07/22 03:48:12;;;;;;;6.10;5.60;;;26.30;96.50;;;;;;6182511;28;89112;-65
2022/07/22 03:51:14;;;;;;;6.28;5.70;;;26.30;96.50;;;;;;6162356;28;89174;-64
2022/07/22 03:54:17;;;;;;;5.47;5.07;;;26.30;96.50;;;;;;6164001;28;89052;-65
2022/07/22 03:57:20;;;;;;;5.82;5.32;;;26.30;96.40;;;;;;6162228;28;87936;-64
2022/07/22 04:00:22;;;;;;;6.30;5.80;;;26.30;96.50;;;;;;6180956;28;89099;-64
2022/07/22 04:03:24;;;;;;;5.90;5.40;;;26.30;96.50;;;;;;6183545;28;88589;-65
2022/07/22 04:06:26;;;;;;;5.90;5.45;;;26.30;96.50;;;;;;6163223;28;87970;-65
2022/07/22 04:09:29;;;;;;;5.93;5.43;;;26.30;96.40;;;;;;6186331;28;90257;-65
2022/07/22 04:12:33;;;;;;;5.68;5.28;;;26.30;96.40;;;;;;6177423;28;89398;-65
2022/07/22 04:15:35;;;;;;;5.85;5.45;;;26.30;96.40;;;;;;6162695;28;88652;-64
2022/07/22 04:18:37;;;;;;;5.85;5.35;;;26.30;96.40;;;;;;6158346;28;89063;-65
2022/07/22 04:21:39;;;;;;;6.00;5.60;;;26.30;96.40;;;;;;6183105;28;91442;-65
2022/07/22 04:24:42;;;;;;;6.65;6.05;;;26.30;96.50;;;;;;6182111;28;89059;-65
2022/07/22 04:27:44;;;;;;;6.03;5.53;;;26.30;96.50;;;;;;6174073;28;90388;-65
2022/07/22 04:30:46;;;;;;;5.82;5.32;;;26.30;96.60;;;;;;6158827;28;89037;-64
2022/07/22 04:33:48;;;;;;;6.07;5.60;;;26.30;96.60;;;;;;6175817;28;88359;-65
2022/07/22 04:36:50;;;;;;;6.30;5.80;;;26.30;96.50;;;;;;6168463;28;88974;-64
2022/07/22 04:39:54;;;;;;;6.82;6.22;;;26.30;96.50;;;;;;6181184;28;89153;-65
2022/07/22 04:42:56;;;;;;;6.43;5.93;;;26.30;96.60;;;;;;6181366;28;90063;-65
2022/07/22 04:45:58;;;;;;;6.25;5.75;;;26.30;96.60;;;;;;6182474;28;89109;-65
2022/07/22 04:49:00;;;;;;;6.70;6.20;;;26.30;96.70;;;;;;6180909;28;89457;-64
2022/07/22 04:52:02;;;;;;;6.70;6.20;;;26.30;96.60;;;;;;6165966;28;90137;-65
2022/07/22 04:55:06;;;;;;;7.13;6.63;;;26.30;96.70;;;;;;6173144;28;89064;-65
2022/07/22 04:58:08;;;;;;;6.70;6.20;;;26.30;96.60;;;;;;6165916;28;88987;-64
2022/07/22 05:01:10;;;;;;;6.55;6.05;;;26.30;96.60;;;;;;6162277;28;89099;-65
2022/07/22 05:04:12;;;;;;;6.70;6.20;;;26.30;96.60;;;;;;6180599;28;87797;-64
2022/07/22 05:07:14;;;;;;;6.93;6.43;;;26.30;96.70;;;;;;6181195;28;89404;-65
2022/07/22 05:10:18;;;;;;;6.82;6.32;;;26.30;96.60;;;;;;6182146;28;87999;-65
2022/07/22 05:13:20;;;;;;;6.70;6.20;;;26.30;96.60;;;;;;6168550;28;90001;-65
2022/07/22 05:16:22;;;;;;;6.80;6.30;;;26.30;96.60;;;;;;6168259;28;88951;-64
2022/07/22 05:19:24;;;;;;;6.82;6.22;;;26.40;96.50;;;;;;6173087;28;89370;-65
2022/07/22 05:22:26;;;;;;;7.57;6.88;;;26.40;96.50;;;;;;6174536;28;89365;-65
2022/07/22 05:25:29;;;;;;;7.07;6.38;;;26.30;96.50;;;;;;6181709;28;87985;-65
2022/07/22 05:28:31;;;;;;;7.30;6.70;;;26.40;96.60;;;;;;6185355;28;89421;-64
2022/07/22 05:31:33;;;;;;;7.85;7.25;;;26.30;96.60;;;;;;6172003;28;89153;-65
2022/07/22 05:34:35;;;;;;;7.40;6.80;;;26.40;96.70;;;;;;6176866;28;88904;-65
2022/07/22 05:37:37;;;;;;;7.22;6.63;;;26.30;96.70;;;;;;6168940;28;90853;-64
2022/07/22 05:40:41;;;;;;;7.20;6.57;;;26.40;96.70;;;;;;6180422;28;89113;-64
2022/07/22 05:43:42;;;;;;;7.03;6.43;;;26.40;96.70;;;;;;6175972;28;90055;-65
2022/07/22 05:46:44;;;;;;;7.15;6.55;;;26.40;96.80;;;;;;6174348;28;88871;-65
2022/07/22 05:49:47;;;;;;;7.28;6.57;;;26.40;96.80;;;;;;6172286;28;89447;-65
2022/07/22 05:52:48;;;;;;;7.30;6.70;;;26.40;96.80;;;;;;6170320;28;89092;-65
2022/07/22 05:55:52;;;;;;;7.43;6.82;;;26.40;96.80;;;;;;6169844;28;89036;-65
2022/07/22 05:58:55;;;;;;;7.70;7.10;;;26.40;96.70;;;;;;6173509;28;88077;-65
2022/07/22 06:01:57;;;;;;;7.95;7.10;;;26.40;96.70;;;;;;6170754;28;89444;-64
2022/07/22 06:05:00;;;;;;;7.60;7.00;;;26.40;96.80;;;;;;6180748;28;88648;-65
2022/07/22 06:08:02;;;;;;;7.47;6.88;;;26.40;96.80;;;;;;6168449;28;89101;-65
2022/07/22 06:11:05;;;;;;;7.60;6.90;;;26.40;96.90;;;;;;6180014;28;88045;-65
2022/07/22 06:14:07;;;;;;;7.30;6.70;;;26.40;96.90;;;;;;6162958;28;90041;-64
2022/07/22 06:17:10;;;;;;;7.32;6.72;;;26.40;96.90;;;;;;6176366;28;89393;-64
2022/07/22 06:20:12;;;;;;;6.97;6.45;;;26.40;96.90;;;;;;6163259;28;89075;-65
2022/07/22 06:23:14;;;;;;;6.90;6.40;;;26.40;96.90;;;;;;6164681;28;89066;-64
2022/07/22 06:26:17;;;;;;;7.60;7.00;;;26.40;96.80;;;;;;6178873;28;88518;-64
2022/07/22 06:29:19;;;;;;;7.03;6.53;;;26.40;96.80;;;;;;6178646;28;89173;-64
2022/07/22 06:32:21;;;;;;;7.15;6.55;;;26.40;96.80;;;;;;6166604;28;87986;-65
2022/07/22 06:35:24;;;;;;;7.15;6.65;;;26.40;96.80;;;;;;6183695;28;89108;-64
2022/07/22 06:38:26;;;;;;;8.73;7.00;;;26.40;96.80;;;;;;6177906;28;87919;-64
2022/07/22 06:41:30;;;;;;;7.13;6.53;;;26.40;97.00;;;;;;6177626;28;88281;-64
2022/07/22 06:44:32;;;;;;;7.47;6.93;;;26.40;97.00;;;;;;6173569;28;91716;-64
2022/07/22 06:47:35;;;;;;;7.30;6.80;;;26.40;97.00;;;;;;6177752;28;89063;-65
2022/07/22 06:50:37;;;;;;;8.23;7.50;;;26.40;97.00;;;;;;6164642;28;87703;-65
2022/07/22 06:53:39;;;;;;;7.43;6.82;;;26.40;97.10;;;;;;6173221;28;89138;-64
2022/07/22 06:56:42;;;;;;;7.78;7.18;;;26.40;97.20;;;;;;6190212;28;89113;-64
2022/07/22 06:59:44;;;;;;;7.90;7.20;;;26.40;97.30;;;;;;6166323;28;88705;-64
2022/07/22 07:02:47;;;;;;;7.80;7.20;;;26.40;97.50;;;;;;6167017;28;89215;-64
2022/07/22 07:05:49;;;;;;;8.10;7.45;;;26.40;97.60;;;;;;6167002;28;87265;-64
2022/07/22 07:08:51;;;;;;;7.38;6.88;;;26.40;97.60;;;;;;6183894;28;89438;-64
2022/07/22 07:11:54;;;;;;;7.50;6.90;;;26.40;97.70;;;;;;6183959;28;89053;-65
2022/07/22 07:14:56;;;;;;;7.75;7.15;;;26.40;97.60;;;;;;6161728;28;90354;-65
2022/07/22 07:17:58;;;;;;;7.80;7.20;;;26.40;97.60;;;;;;6180184;28;89030;-64
2022/07/22 07:21:00;;;;;;;8.13;7.43;;;26.50;97.70;;;;;;6183218;28;89136;-65
2022/07/22 07:24:02;;;;;;;7.55;6.95;;;26.50;97.60;;;;;;6180427;28;89140;-65
2022/07/22 07:27:05;;;;;;;7.97;7.38;;;26.50;97.70;;;;;;6170616;28;89293;-65
2022/07/22 07:30:09;;;;;;;8.02;7.32;;;26.50;97.80;;;;;;6183165;28;89028;-64
2022/07/22 07:33:11;;;;;;;8.25;7.60;;;26.50;97.90;;;;;;6174259;28;89073;-64
2022/07/22 07:36:13;;;;;;;7.90;7.30;;;26.50;98.00;;;;;;6189312;28;88366;-65
2022/07/22 07:39:15;;;;;;;7.72;7.13;;;26.50;98.10;;;;;;6181145;28;87917;-64
2022/07/22 07:42:19;;;;;;;8.02;7.43;;;26.50;98.20;;;;;;6182554;28;89434;-64
2022/07/22 07:45:21;;;;;;;8.00;7.30;;;26.50;98.30;;;;;;6178516;28;90082;-65
2022/07/22 07:48:23;;;;;;;8.63;7.78;;;26.50;98.40;;;;;;6175202;28;89405;-64
2022/07/22 07:51:25;;;;;;;8.02;7.35;;;26.50;98.50;;;;;;6168702;28;89110;-64
2022/07/22 07:54:27;;;;;;;7.85;7.25;;;26.50;98.60;;;;;;6172648;28;89020;-64
2022/07/22 07:57:30;;;;;;;8.02;7.43;;;26.50;98.70;;;;;;6174284;28;89022;-65
2022/07/22 08:00:33;;;;;;;8.15;7.55;;;26.50;98.70;;;;;;6171474;28;89079;-65
2022/07/22 08:03:36;;;;;;;8.48;7.35;;;26.50;98.70;;;;;;6172526;28;89147;-64
2022/07/22 08:06:38;;;;;;;7.47;6.88;;;26.50;98.70;;;;;;6183635;28;88524;-66
2022/07/22 08:09:40;;;;;;;8.25;7.65;;;26.50;98.70;;;;;;6170790;28;89177;-65
2022/07/22 08:12:44;;;;;;;8.32;7.55;;;26.50;98.70;;;;;;6180475;28;88997;-65
2022/07/22 08:15:45;;;;;;;8.57;7.88;;;26.50;98.80;;;;;;6176851;28;91652;-65
2022/07/22 08:18:48;;;;;;;8.32;7.63;;;26.50;98.80;;;;;;6174712;28;89104;-65
2022/07/22 08:21:49;;;;;;;8.45;7.75;;;26.50;99.00;;;;;;6165169;28;89070;-66
2022/07/22 08:24:53;;;;;;;8.73;8.02;;;26.50;99.10;;;;;;6171641;28;89114;-66
2022/07/22 08:27:58;;;;;;;8.80;8.02;;;26.50;99.30;;;;;;6177558;28;91171;-65
2022/07/22 08:31:00;;;;;;;8.07;7.43;;;26.50;99.30;;;;;;6175625;28;88842;-65
2022/07/22 08:34:02;;;;;;;8.63;7.80;;;26.50;99.40;;;;;;6169310;28;89113;-66
2022/07/22 08:37:04;;;;;;;8.45;7.65;;;26.50;99.40;;;;;;6176184;28;88091;-65
2022/07/22 08:40:10;;;;;;;8.70;8.00;;;26.50;99.50;;;;;;6180766;28;89045;-65
2022/07/22 08:43:14;;;;;;;8.63;7.93;;;26.50;99.30;;;;;;6168658;28;89128;-66
2022/07/22 08:46:16;;;;;;;8.27;7.65;;;26.50;99.20;;;;;;6170364;28;90100;-65
2022/07/22 08:49:18;;;;;;;8.25;7.57;;;26.50;99.30;;;;;;6165509;28;89464;-65
2022/07/22 08:52:20;;;;;;;8.30;7.60;;;26.50;99.30;;;;;;6160724;28;89384;-65
2022/07/22 08:55:22;;;;;;;8.43;7.75;;;26.50;99.30;;;;;;6168627;28;89144;-65
2022/07/22 08:58:26;;;;;;;8.48;7.78;;;26.50;99.50;;;;;;6175100;28;89551;-65
2022/07/22 09:01:28;;;;;;;8.05;7.45;;;26.50;99.40;;;;;;6181980;28;89080;-65
2022/07/22 09:04:30;;;;;;;8.15;7.45;;;26.50;99.10;;;;;;6179318;28;89344;-65
2022/07/22 09:07:34;;;;;;;8.38;7.78;;;26.60;99.10;;;;;;6181848;28;88305;-65
2022/07/22 09:10:37;;;;;;;8.70;8.05;;;26.50;99.50;;;;;;6180992;28;88030;-65
2022/07/22 09:13:40;;;;;;;9.13;8.25;;;26.50;99.40;;;;;;6180894;28;89066;-65
2022/07/22 09:16:44;;;;;;;8.27;7.68;;;26.50;99.70;;;;;;6168981;28;89670;-65
2022/07/22 09:19:46;;;;;;;8.20;7.60;;;26.50;99.60;;;;;;6159632;28;89067;-65
2022/07/22 09:22:49;;;;;;;8.40;7.80;;;26.50;99.70;;;;;;6177655;28;89143;-65
2022/07/22 09:25:51;;;;;;;8.43;7.68;;;26.50;99.90;;;;;;6175307;28;89300;-66
2022/07/22 09:28:57;;;;;;;8.35;7.75;;;26.50;99.90;;;;;;6170467;28;88998;-65
2022/07/22 09:32:00;;;;;;;8.25;7.55;;;26.50;99.70;;;;;;6173513;28;89171;-65
2022/07/22 09:35:04;;;;;;;8.82;8.13;;;26.50;99.80;;;;;;6169389;28;89008;-65
2022/07/22 09:38:08;;;;;;;8.68;7.97;;;26.60;99.90;;;;;;6180048;28;88427;-65
2022/07/22 09:41:10;;;;;;;9.20;8.40;;;26.60;99.90;;;;;;6177842;28;89247;-65
2022/07/22 09:44:24;;;;;;;8.93;8.13;;;26.60;99.90;;;;;;6174350;28;88972;-65
2022/07/22 09:47:30;;;;;;;8.70;8.00;;;26.60;99.90;;;;;;6170525;28;90009;-65
2022/07/22 09:50:34;;;;;;;9.18;8.38;;;26.60;99.70;;;;;;6160287;28;90186;-66
2022/07/22 09:53:36;;;;;;;9.05;8.35;;;26.60;99.70;;;;;;6168567;28;89477;-66
2022/07/22 09:56:39;;;;;;;8.35;7.65;;;26.60;99.70;;;;;;6160959;28;90607;-65
2022/07/22 09:59:42;;;;;;;9.10;8.30;;;26.60;99.60;;;;;;6179153;28;88325;-65
2022/07/22 10:02:50;;;;;;;8.95;8.25;;;26.60;99.80;;;;;;6173496;28;89465;-65
2022/07/22 10:05:52;;;;;;;8.77;8.07;;;26.60;99.90;;;;;;6176001;28;89451;-65
2022/07/22 10:08:56;;;;;;;8.95;8.15;;;26.60;99.90;;;;;;6185188;28;89641;-66
2022/07/22 10:11:58;;;;;;;8.52;7.82;;;26.60;99.90;;;;;;6184989;28;89107;-66
2022/07/22 10:15:02;;;;;;;8.88;8.18;;;26.60;99.90;;;;;;6172159;28;89179;-65
2022/07/22 10:18:07;;;;;;;8.77;8.07;;;26.60;99.90;;;;;;6179424;28;90033;-65
2022/07/22 10:21:11;;;;;;;8.93;8.23;;;26.50;99.90;;;;;;6164856;28;89059;-66
2022/07/22 10:24:17;;;;;;;8.18;7.57;;;26.60;99.90;;;;;;6176960;28;89238;-66
2022/07/22 10:27:46;;;;;;;8.50;7.80;;;26.50;99.90;;;;;;6178028;28;88942;-65
2022/07/22 10:30:50;;;;;;;8.40;7.80;;;26.60;99.80;;;;;;6172968;28;89113;-65
2022/07/22 10:33:53;;;;;;;8.73;8.02;;;26.60;99.60;;;;;;6183313;28;89032;-66
2022/07/22 10:36:55;;;;;;;9.07;8.27;;;26.60;99.30;;;;;;6171075;28;89446;-65
2022/07/22 10:40:12;;;;;;;9.07;8.18;;;26.60;99.30;;;;;;6172600;28;88389;-65
2022/07/22 10:43:15;;;;;;;9.48;8.68;;;26.60;99.50;;;;;;6160350;28;89248;-65
2022/07/22 10:46:18;;;;;;;9.07;8.32;;;26.60;99.50;;;;;;6173582;28;89040;-65
2022/07/22 10:49:23;;;;;;;9.48;8.68;;;26.60;99.70;;;;;;6185585;28;90007;-66
2022/07/22 10:52:35;;;;;;;8.90;8.15;;;26.60;99.70;;;;;;6173633;28;89053;-65
2022/07/22 10:55:38;;;;;;;8.70;8.00;;;26.60;99.70;;;;;;6172884;28;89124;-65
2022/07/22 10:58:52;;;;;;;8.93;8.13;;;26.60;99.70;;;;;;6179700;28;89074;-66
2022/07/22 11:01:57;;;;;;;9.07;8.27;;;26.60;99.50;;;;;;6171922;28;88022;-65
2022/07/22 11:04:59;;;;;;;8.98;8.20;;;26.60;99.60;;;;;;6175830;28;89160;-66
2022/07/22 11:08:09;;;;;;;9.00;8.30;;;26.60;99.60;;;;;;6183639;28;89039;-65
2022/07/22 11:11:11;;;;;;;9.00;8.23;;;26.60;99.60;;;;;;6174162;28;88469;-66
2022/07/22 11:14:18;;;;;;;8.68;7.97;;;26.60;99.60;;;;;;6177454;28;89229;-66
2022/07/22 11:17:23;;;;;;;9.52;8.65;;;26.60;99.60;;;;;;6181628;28;89472;-66
2022/07/22 11:20:25;;;;;;;9.07;8.38;;;26.60;99.30;;;;;;6180472;28;88782;-66
2022/07/22 11:23:27;;;;;;;9.40;8.70;;;26.60;99.20;;;;;;6171494;28;89302;-66
2022/07/22 11:26:37;;;;;;;9.50;8.60;;;26.60;99.20;;;;;;6181173;28;87954;-66
2022/07/22 11:29:42;;;;;;;9.70;8.80;;;26.60;99.30;;;;;;6168105;28;88737;-66
2022/07/22 11:32:46;;;;;;;9.60;8.80;;;26.60;99.30;;;;;;6173923;28;89237;-66
2022/07/22 11:36:02;;;;;;;9.73;8.93;;;26.60;99.40;;;;;;6190645;28;89083;-66
2022/07/22 11:39:06;;;;;;;10.30;9.40;;;26.60;99.50;;;;;;6178055;28;89155;-66
2022/07/22 11:42:08;;;;;;;9.52;8.70;;;26.60;99.50;;;;;;6177516;28;89929;-66
2022/07/22 11:45:11;;;;;;;9.35;8.55;;;26.60;99.40;;;;;;6179545;28;89591;-66
2022/07/22 11:48:14;;;;;;;9.15;8.35;;;26.60;99.50;;;;;;6179069;28;89007;-66
2022/07/22 11:51:17;;;;;;;9.05;8.30;;;26.60;99.60;;;;;;6167291;28;90535;-66
2022/07/22 11:54:19;;;;;;;9.07;8.38;;;26.60;99.60;;;;;;6177370;28;89076;-66
2022/07/22 11:57:21;;;;;;;9.25;8.45;;;26.60;99.60;;;;;;6159980;28;89066;-66
2022/07/22 12:00:23;;;;;;;9.43;8.65;;;26.60;99.60;;;;;;6161890;28;90134;-66
2022/07/22 12:03:27;;;;;;;9.40;8.55;;;26.60;99.40;;;;;;6182763;28;89144;-66
2022/07/22 12:06:33;;;;;;;9.70;8.93;;;26.60;99.20;;;;;;6182436;28;89227;-66
2022/07/22 12:09:37;;;;;;;9.82;9.02;;;26.60;99.20;;;;;;6172317;28;89191;-65
2022/07/22 12:12:43;;;;;;;9.02;8.32;;;26.60;99.30;;;;;;6181844;28;88433;-66
2022/07/22 12:15:45;;;;;;;10.05;9.13;;;26.60;99.20;;;;;;6169575;28;89132;-66
2022/07/22 12:18:54;;;;;;;9.75;8.95;;;26.70;99.40;;;;;;6168950;28;89127;-66
2022/07/22 12:21:58;;;;;;;10.20;9.20;;;26.60;99.40;;;;;;6168341;28;89940;-66
2022/07/22 12:25:02;;;;;;;10.30;9.38;;;26.60;99.40;;;;;;6169611;28;89260;-66
2022/07/22 12:28:04;;;;;;;9.57;8.85;;;26.60;99.50;;;;;;6176726;28;89393;-66
2022/07/22 12:31:06;;;;;;;9.88;8.98;;;26.60;99.50;;;;;;6174306;28;89145;-66
2022/07/22 12:34:10;;;;;;;9.70;8.90;;;26.60;99.60;;;;;;6168903;28;89469;-66
2022/07/22 12:37:16;;;;;;;9.35;8.55;;;26.60;99.60;;;;;;6171347;28;89105;-66
2022/07/22 12:40:20;;;;;;;9.60;8.80;;;26.60;99.60;;;;;;6169433;28;89066;-66
2022/07/22 12:43:26;;;;;;;10.40;9.55;;;26.70;99.50;;;;;;6176331;28;88438;-66
2022/07/22 12:46:28;;;;;;;10.13;9.05;;;26.60;99.30;;;;;;6183786;28;88336;-66
2022/07/22 12:49:32;;;;;;;9.52;8.70;;;26.70;99.20;;;;;;6165077;28;89083;-66
2022/07/22 12:52:35;;;;;;;9.13;8.43;;;26.70;99.00;;;;;;6173981;28;90018;-66
2022/07/22 12:55:38;;;;;;;10.00;9.10;;;26.70;98.90;;;;;;6166439;28;87879;-66
2022/07/22 12:58:41;;;;;;;9.82;9.02;;;26.60;98.80;;;;;;6159452;28;89108;-66
2022/07/22 13:01:43;;;;;;;10.23;9.32;;;26.60;98.80;;;;;;6169719;28;89230;-66
2022/07/22 13:04:46;;;;;;;10.38;9.48;;;26.70;98.70;;;;;;6175159;28;89485;-66
2022/07/22 13:07:49;;;;;;;10.43;9.57;;;26.60;98.60;;;;;;6180381;28;88925;-66
2022/07/22 13:10:51;;;;;;;10.15;9.35;;;26.60;98.60;;;;;;6169429;28;89121;-66
2022/07/22 13:13:53;;;;;;;10.68;9.70;;;26.60;98.60;;;;;;6181174;28;88410;-66
2022/07/22 13:16:55;;;;;;;9.75;8.95;;;26.60;98.50;;;;;;6170843;28;89498;-66
2022/07/22 13:19:59;;;;;;;10.18;9.18;;;26.70;98.60;;;;;;6169846;28;88959;-66
2022/07/22 13:23:01;;;;;;;9.95;9.05;;;26.70;98.50;;;;;;6170195;28;90196;-66
2022/07/22 13:26:03;;;;;;;9.68;8.88;;;26.60;98.40;;;;;;6178232;28;89060;-66
2022/07/22 13:29:05;;;;;;;10.30;9.40;;;26.60;98.30;;;;;;6181119;28;88036;-66
2022/07/22 13:32:08;;;;;;;10.10;9.30;;;26.70;98.40;;;;;;6179800;28;88228;-66
2022/07/22 13:35:11;;;;;;;10.68;9.77;;;26.70;98.30;;;;;;6180771;28;87948;-67
2022/07/22 13:38:16;;;;;;;10.20;9.32;;;26.70;98.20;;;;;;6181386;28;89053;-66
2022/07/22 13:41:18;;;;;;;9.68;8.88;;;26.70;98.60;;;;;;6180230;28;89442;-66
2022/07/22 13:44:21;;;;;;;9.60;8.80;;;26.70;98.10;;;;;;6181293;28;88827;-66
2022/07/22 13:47:23;;;;;;;9.68;8.88;;;26.70;98.00;;;;;;6179807;28;89452;-66
2022/07/22 13:50:26;;;;;;;10.40;9.40;;;26.70;98.00;;;;;;6158546;28;87975;-66
2022/07/22 13:53:28;;;;;;;10.18;9.20;;;26.70;98.00;;;;;;6181598;28;90633;-66
2022/07/22 13:56:30;;;;;;;9.25;8.35;;;26.70;98.00;;;;;;6175314;28;90223;-66
2022/07/22 13:59:33;;;;;;;9.32;8.55;;;26.70;98.00;;;;;;6169988;28;89094;-66
2022/07/22 14:02:35;;;;;;;9.30;8.57;;;26.70;98.00;;;;;;6159583;28;88988;-66
2022/07/22 14:05:38;;;;;;;9.80;9.00;;;26.70;98.10;;;;;;6181768;28;89437;-66
2022/07/22 14:08:40;;;;;;;9.13;8.35;;;26.70;98.10;;;;;;6182547;28;89213;-66
2022/07/22 14:11:42;;;;;;;10.07;9.18;;;26.70;98.00;;;;;;6189405;28;89125;-66
2022/07/22 14:14:45;;;;;;;9.52;8.82;;;26.70;98.00;;;;;;6174946;28;88448;-67
2022/07/22 14:17:47;;;;;;;9.82;9.02;;;26.70;98.00;;;;;;6169700;28;89206;-66
2022/07/22 14:20:50;;;;;;;10.00;9.20;;;26.70;98.00;;;;;;6179308;28;89132;-66
2022/07/22 14:23:52;;;;;;;9.88;9.07;;;26.70;97.90;;;;;;6157849;28;90438;-66
2022/07/22 14:26:54;;;;;;;9.98;9.18;;;26.70;97.80;;;;;;6168419;28;89578;-66
2022/07/22 14:29:56;;;;;;;10.57;9.60;;;26.70;97.70;;;;;;6178660;28;89123;-66
2022/07/22 14:32:58;;;;;;;9.90;9.00;;;26.70;97.60;;;;;;6180433;28;87953;-67
2022/07/22 14:36:01;;;;;;;9.98;9.07;;;26.70;97.60;;;;;;6167164;28;88988;-67
2022/07/22 14:39:04;;;;;;;10.15;9.35;;;26.70;97.50;;;;;;6174819;28;87994;-66
2022/07/22 14:42:06;;;;;;;9.75;8.95;;;26.70;97.50;;;;;;6176216;28;88086;-66
2022/07/22 14:45:10;;;;;;;10.30;9.40;;;26.70;97.60;;;;;;6179731;28;88436;-67
2022/07/22 14:48:12;;;;;;;9.90;9.00;;;26.70;97.60;;;;;;6181186;28;87947;-67
2022/07/22 14:51:15;;;;;;;9.20;8.50;;;26.70;97.70;;;;;;6160365;28;89099;-67
2022/07/22 14:54:17;;;;;;;10.23;9.43;;;26.70;97.80;;;;;;6160096;28;90008;-66
2022/07/22 14:57:19;;;;;;;9.88;8.98;;;26.80;97.80;;;;;;6165682;28;87994;-66
2022/07/22 15:00:21;;;;;;;9.52;8.73;;;26.70;97.70;;;;;;6169804;28;89079;-66
2022/07/22 15:03:23;;;;;;;9.15;8.38;;;26.80;97.70;;;;;;6183341;28;89295;-66
2022/07/22 15:06:27;;;;;;;9.23;8.43;;;26.80;97.60;;;;;;6171297;28;89062;-66
2022/07/22 15:09:29;;;;;;;9.20;8.50;;;26.80;97.50;;;;;;6189496;28;88333;-67
2022/07/22 15:12:31;;;;;;;9.32;8.52;;;26.80;97.40;;;;;;6183863;28;89096;-66
2022/07/22 15:15:35;;;;;;;9.40;8.60;;;26.80;97.30;;;;;;6169782;28;88807;-67
2022/07/22 15:18:37;;;;;;;9.75;8.85;;;26.70;97.20;;;;;;6184069;28;89619;-66
2022/07/22 15:21:41;;;;;;;9.27;8.57;;;26.70;97.60;;;;;;6172883;28;88539;-66
2022/07/22 15:24:43;;;;;;;9.15;8.43;;;26.70;97.20;;;;;;6171175;28;89975;-66
2022/07/22 15:27:45;;;;;;;9.68;8.80;;;26.70;97.20;;;;;;6180455;28;89060;-66
2022/07/22 15:30:47;;;;;;;8.95;8.05;;;26.80;97.20;;;;;;6170923;28;89212;-66
2022/07/22 15:33:50;;;;;;;9.85;8.95;;;26.80;97.20;;;;;;6175176;28;89046;-66
2022/07/22 15:36:53;;;;;;;9.48;8.68;;;26.80;97.20;;;;;;6169317;28;89079;-66
2022/07/22 15:39:55;;;;;;;9.13;8.32;;;26.80;97.30;;;;;;6174433;28;87719;-66
2022/07/22 15:42:57;;;;;;;8.63;7.82;;;26.80;97.30;;;;;;6166090;28;87989;-66
2022/07/22 15:45:59;;;;;;;9.40;8.70;;;26.80;97.30;;;;;;6174884;28;88396;-66
2022/07/22 15:49:01;;;;;;;9.23;8.43;;;26.80;97.30;;;;;;6176891;28;89314;-66